Columbia, Maryland
Current Conditions -  °F | °C
As of 1:21 PM on Saturday 25 Oct 2014 (Local Time) from KFME Reporting Station
Clear Clear  
Wind Chill: 68°   Ceiling: Unl
Heat Index: 68°   Visibility: 10mi
Dew Point: 41°   Wind: 10mph
Humidity: 37%   Direction: 310°NW
Pressure: 29.88"   Gusts: NA
Location:  39.21°N, 76.87°W
Report Text: KFME 251721Z AUTO 31009KT 10SM CLR 20/05 A2988 RMK AO1
Loading
Personal Weather Stations






























Interactive Weather Map
Tropical Storm Tracking
New forecast layout! Learn more

10-Day Weather Forecast

Advertisements
Track Severe Weather on mobile